createdAt,value
2022-08-01T00:01:00.938Z,17.42
2022-08-01T00:03:49.496Z,17.07
2022-08-01T00:06:37.970Z,17.34
2022-08-01T00:09:26.411Z,17.11
2022-08-01T00:12:16.316Z,17.30
2022-08-01T00:15:06.569Z,17.31
2022-08-01T00:17:55.271Z,17.35
2022-08-01T00:20:43.832Z,17.64
2022-08-01T00:23:32.627Z,17.32
2022-08-01T00:26:21.164Z,17.35
2022-08-01T00:30:01.096Z,17.42
2022-08-01T00:32:19.260Z,17.77
2022-08-01T00:35:08.255Z,17.21
2022-08-01T00:37:56.842Z,17.25
2022-08-01T00:40:45.406Z,17.01
2022-08-01T00:43:33.892Z,17.29
2022-08-01T00:46:23.676Z,17.30
2022-08-01T00:49:12.257Z,17.00
2022-08-01T00:52:01.292Z,17.05
2022-08-01T00:54:50.481Z,16.93
2022-08-01T00:58:02.601Z,17.18
2022-08-01T01:00:52.895Z,17.45
2022-08-01T01:03:58.488Z,17.58
2022-08-01T01:06:58.264Z,17.69
2022-08-01T01:09:52.934Z,17.06
2022-08-01T01:12:56.962Z,17.06
2022-08-01T01:15:49.850Z,17.01
2022-08-01T01:18:43.989Z,16.85
2022-08-01T01:21:48.294Z,16.89
2022-08-01T01:24:44.910Z,16.84
2022-08-01T01:27:44.912Z,16.81
2022-08-01T01:30:35.882Z,16.88
2022-08-01T01:33:29.374Z,17.14
2022-08-01T01:36:20.507Z,16.75
2022-08-01T01:39:09.191Z,16.64
2022-08-01T01:42:00.080Z,16.55
2022-08-01T01:44:50.762Z,16.59
2022-08-01T01:47:42.019Z,16.39
2022-08-01T01:50:31.835Z,16.42
2022-08-01T01:53:24.775Z,16.37
2022-08-01T01:56:16.147Z,16.45
2022-08-01T01:59:06.813Z,16.24
2022-08-01T02:02:05.446Z,16.24
2022-08-01T02:04:57.259Z,16.28
2022-08-01T02:07:46.899Z,16.40
2022-08-01T02:10:38.421Z,16.58
2022-08-01T02:13:27.234Z,16.26
2022-08-01T02:16:17.975Z,16.76
2022-08-01T02:19:06.561Z,16.81
2022-08-01T02:22:02.144Z,16.44
2022-08-01T02:24:56.750Z,16.58
2022-08-01T02:27:49.973Z,16.57
2022-08-01T02:30:44.079Z,16.67
2022-08-01T02:33:38.984Z,16.56
2022-08-01T02:36:33.034Z,16.68
2022-08-01T02:39:24.534Z,16.63
2022-08-01T02:42:15.302Z,16.78
2022-08-01T02:45:06.604Z,16.67
2022-08-01T02:47:59.858Z,16.62
2022-08-01T02:50:51.669Z,16.56
2022-08-01T02:53:45.018Z,16.47
2022-08-01T02:56:39.378Z,16.47
2022-08-01T02:59:30.865Z,16.57
2022-08-01T03:02:20.264Z,16.46
2022-08-01T03:05:10.500Z,16.09
2022-08-01T03:08:02.709Z,16.32
2022-08-01T03:10:54.733Z,16.42
2022-08-01T03:13:47.437Z,16.13
2022-08-01T03:16:37.919Z,16.17
2022-08-01T03:19:28.603Z,16.47
2022-08-01T03:22:18.152Z,16.24
2022-08-01T03:25:08.449Z,16.36
2022-08-01T03:28:00.244Z,16.21
2022-08-01T03:30:51.459Z,16.62
2022-08-01T03:33:40.031Z,16.38
2022-08-01T03:36:30.715Z,16.41
2022-08-01T03:39:21.513Z,16.28
2022-08-01T03:42:16.282Z,17.10
2022-08-01T03:45:13.357Z,16.57
2022-08-01T03:48:07.482Z,16.37
2022-08-01T03:50:56.567Z,16.24
2022-08-01T03:53:47.514Z,16.27
2022-08-01T03:56:37.138Z,16.18
2022-08-01T03:59:26.133Z,16.25
2022-08-01T04:02:16.009Z,16.25
2022-08-01T04:05:06.766Z,16.12
2022-08-01T04:07:57.306Z,16.37
2022-08-01T04:10:45.880Z,16.39
2022-08-01T04:13:36.849Z,16.45
2022-08-01T04:16:25.891Z,16.14
2022-08-01T04:19:14.395Z,16.20
2022-08-01T04:22:05.061Z,16.06
2022-08-01T04:24:58.290Z,16.02
2022-08-01T04:27:52.203Z,16.53
2022-08-01T04:30:42.475Z,16.79
2022-08-01T04:33:33.508Z,16.29
2022-08-01T04:36:25.528Z,16.26
2022-08-01T04:39:18.114Z,16.14
2022-08-01T04:42:07.764Z,15.88
2022-08-01T04:44:56.438Z,16.57
2022-08-01T04:47:45.851Z,16.08
2022-08-01T04:50:34.845Z,16.58
2022-08-01T04:53:23.955Z,16.74
2022-08-01T04:56:14.805Z,16.53
2022-08-01T04:59:20.896Z,16.61
2022-08-01T05:02:10.447Z,16.61
2022-08-01T05:04:58.822Z,16.10
2022-08-01T05:07:47.321Z,16.78
2022-08-01T05:10:35.871Z,16.72
2022-08-01T05:13:25.759Z,16.91
2022-08-01T05:16:14.252Z,16.30
2022-08-01T05:19:03.681Z,16.82
2022-08-01T05:21:52.119Z,16.62
2022-08-01T05:24:41.638Z,16.77
2022-08-01T05:27:30.151Z,16.92
2022-08-01T05:30:21.137Z,16.66
2022-08-01T05:33:09.693Z,16.14
2022-08-01T05:35:58.190Z,16.61
2022-08-01T05:38:47.350Z,16.54
2022-08-01T05:41:36.003Z,16.85
2022-08-01T05:44:24.280Z,17.14
2022-08-01T05:47:14.245Z,17.14
2022-08-01T05:50:02.743Z,17.44
2022-08-01T05:52:51.413Z,17.34
2022-08-01T05:55:39.715Z,17.32
2022-08-01T05:58:28.242Z,17.16
2022-08-01T06:01:16.647Z,17.03
2022-08-01T06:04:06.935Z,16.84
2022-08-01T06:06:55.309Z,17.02
2022-08-01T06:09:43.649Z,17.82
2022-08-01T06:12:35.715Z,17.57
2022-08-01T06:15:24.361Z,18.41
2022-08-01T06:18:12.880Z,17.76
2022-08-01T06:21:02.637Z,18.28
2022-08-01T06:23:51.103Z,18.42
2022-08-01T06:26:39.501Z,18.64
2022-08-01T06:29:27.873Z,19.45
2022-08-01T06:32:26.322Z,19.18
2022-08-01T06:35:16.215Z,19.42
2022-08-01T06:38:06.103Z,19.11
2022-08-01T06:40:54.503Z,18.98
2022-08-01T06:43:43.223Z,19.40
2022-08-01T06:46:32.524Z,19.32
2022-08-01T06:49:21.774Z,19.25
2022-08-01T06:52:10.716Z,19.23
2022-08-01T06:55:00.885Z,18.99
2022-08-01T06:57:51.175Z,19.54
2022-08-01T07:00:39.530Z,20.25
2022-08-01T07:03:52.742Z,20.30
2022-08-01T07:06:36.715Z,20.27
2022-08-01T07:09:25.243Z,20.67
2022-08-01T07:12:14.955Z,20.41
2022-08-01T07:15:04.763Z,20.83
2022-08-01T07:17:53.079Z,20.85
2022-08-01T07:20:51.106Z,20.72
2022-08-01T07:23:46.115Z,20.63
2022-08-01T07:26:34.901Z,21.20
2022-08-01T07:29:25.694Z,20.30
2022-08-01T07:32:14.173Z,20.68
2022-08-01T07:35:02.683Z,20.70
2022-08-01T07:37:51.108Z,21.28
2022-08-01T07:40:39.671Z,20.85
2022-08-01T07:43:28.078Z,21.20
2022-08-01T07:46:18.240Z,21.64
2022-08-01T07:49:06.653Z,21.93
2022-08-01T07:52:13.718Z,21.90
2022-08-01T07:55:02.490Z,21.82
2022-08-01T07:57:51.190Z,21.83
2022-08-01T08:00:39.700Z,22.55
2022-08-01T08:03:29.512Z,22.86
2022-08-01T08:06:17.841Z,21.76
2022-08-01T08:09:06.267Z,22.82
2022-08-01T08:11:54.599Z,22.26
2022-08-01T08:14:43.016Z,23.09
2022-08-01T08:17:35.569Z,23.36
2022-08-01T08:20:28.211Z,22.37
2022-08-01T08:23:42.088Z,22.97
2022-08-01T08:26:32.032Z,23.19
2022-08-01T08:29:20.665Z,23.63
2022-08-01T08:32:11.020Z,23.33
2022-08-01T08:34:59.640Z,23.73
2022-08-01T08:37:53.262Z,23.46
2022-08-01T08:40:44.566Z,24.21
2022-08-01T08:43:33.069Z,23.08
2022-08-01T08:46:28.275Z,23.47
2022-08-01T08:49:19.568Z,24.30
2022-08-01T08:52:08.893Z,24.32
2022-08-01T08:55:00.514Z,24.46
2022-08-01T08:57:50.022Z,23.63
2022-08-01T09:00:38.613Z,24.42
2022-08-01T09:03:27.205Z,25.05
2022-08-01T09:06:15.709Z,24.07
2022-08-01T09:09:04.694Z,24.44
2022-08-01T09:11:57.445Z,24.86
2022-08-01T09:14:48.038Z,24.11
2022-08-01T09:17:43.456Z,24.37
2022-08-01T09:20:35.714Z,24.25
2022-08-01T09:23:34.136Z,25.25
2022-08-01T09:26:30.976Z,25.63
2022-08-01T09:29:36.260Z,25.00
2022-08-01T09:32:28.485Z,25.09
2022-08-01T09:35:30.161Z,24.94
2022-08-01T09:38:21.710Z,24.72
2022-08-01T09:41:10.153Z,25.99
2022-08-01T09:44:02.768Z,26.67
2022-08-01T09:46:56.631Z,26.77
2022-08-01T09:49:51.950Z,25.10
2022-08-01T09:52:41.566Z,26.13
2022-08-01T09:55:30.226Z,25.15
2022-08-01T09:58:18.613Z,25.95
2022-08-01T10:01:08.822Z,25.93
2022-08-01T10:04:12.997Z,26.99
2022-08-01T10:07:07.853Z,27.35
2022-08-01T10:09:56.645Z,27.75
2022-08-01T10:12:46.002Z,27.60
2022-08-01T10:15:38.183Z,27.42
2022-08-01T10:18:28.416Z,27.05
2022-08-01T10:21:44.020Z,27.79
2022-08-01T10:24:30.135Z,26.62
2022-08-01T10:27:24.727Z,26.22
2022-08-01T10:30:26.611Z,26.52
2022-08-01T10:33:20.008Z,26.73
2022-08-01T10:36:27.509Z,27.41
2022-08-01T10:39:20.062Z,28.11
2022-08-01T10:42:15.947Z,28.38
2022-08-01T10:45:06.247Z,27.37
2022-08-01T10:48:02.454Z,27.13
2022-08-01T10:50:56.296Z,27.54
2022-08-01T10:53:50.492Z,27.26
2022-08-01T10:56:46.260Z,27.43
2022-08-01T10:59:50.652Z,27.69
2022-08-01T11:03:01.758Z,28.16
2022-08-01T11:05:54.452Z,27.67
2022-08-01T11:08:44.780Z,27.93
2022-08-01T11:12:01.116Z,28.26
2022-08-01T11:15:29.096Z,28.45
2022-08-01T11:18:37.787Z,29.09
2022-08-01T11:22:02.116Z,29.45
2022-08-01T11:25:01.164Z,28.97
2022-08-01T11:28:29.045Z,28.01
2022-08-01T11:31:37.491Z,27.26
2022-08-01T11:34:56.941Z,27.64
2022-08-01T11:37:45.813Z,26.49
2022-08-01T11:40:34.273Z,26.59
2022-08-01T11:43:24.181Z,26.98
2022-08-01T11:46:13.893Z,27.52
2022-08-01T11:49:29.132Z,26.68
2022-08-01T11:52:21.175Z,27.23
2022-08-01T11:55:11.917Z,27.47
2022-08-01T11:58:06.712Z,28.51
2022-08-01T12:01:00.463Z,28.63
2022-08-01T12:03:58.050Z,28.31
2022-08-01T12:06:46.752Z,27.19
2022-08-01T12:09:39.310Z,28.18
2022-08-01T12:12:28.224Z,28.45
2022-08-01T12:15:17.945Z,28.14
2022-08-01T12:18:09.124Z,26.60
2022-08-01T12:21:05.878Z,27.55
2022-08-01T12:24:02.880Z,28.45
2022-08-01T12:26:51.312Z,27.79
2022-08-01T12:29:41.558Z,29.13
2022-08-01T12:32:35.498Z,27.25
2022-08-01T12:35:27.281Z,28.38
2022-08-01T12:38:18.577Z,28.33
2022-08-01T12:41:12.292Z,27.76
2022-08-01T12:44:00.924Z,27.80
2022-08-01T12:46:49.627Z,27.45
2022-08-01T12:49:39.310Z,27.97
2022-08-01T12:52:29.233Z,27.21
2022-08-01T12:55:20.041Z,27.17
2022-08-01T12:58:15.847Z,28.41
2022-08-01T13:01:06.936Z,28.52
2022-08-01T13:04:02.814Z,28.11
2022-08-01T13:06:55.588Z,29.42
2022-08-01T13:09:52.662Z,29.72
2022-08-01T13:12:42.348Z,28.56
2022-08-01T13:15:35.718Z,28.60
2022-08-01T13:18:31.538Z,27.97
2022-08-01T13:21:22.178Z,28.38
2022-08-01T13:24:12.062Z,28.52
2022-08-01T13:27:05.143Z,28.29
2022-08-01T13:29:54.518Z,27.11
2022-08-01T13:32:45.193Z,28.71
2022-08-01T13:35:33.746Z,28.30
2022-08-01T13:38:42.850Z,27.82
2022-08-01T13:41:35.520Z,27.09
2022-08-01T13:44:25.314Z,27.43
2022-08-01T13:47:15.854Z,27.92
2022-08-01T13:50:05.997Z,28.08
2022-08-01T13:52:54.645Z,27.61
2022-08-01T13:55:43.096Z,26.69
2022-08-01T13:58:31.545Z,27.09
2022-08-01T14:01:21.676Z,27.22
2022-08-01T14:04:10.385Z,27.68
2022-08-01T14:07:00.394Z,27.81
2022-08-01T14:10:04.545Z,27.21
2022-08-01T14:12:59.902Z,27.04
2022-08-01T14:15:51.118Z,27.50
2022-08-01T14:18:44.534Z,27.70
2022-08-01T14:21:33.547Z,27.10
2022-08-01T14:24:21.987Z,26.77
2022-08-01T14:27:10.656Z,27.95
2022-08-01T14:30:02.569Z,27.17
2022-08-01T14:32:51.960Z,27.22
2022-08-01T14:36:06.755Z,27.41
2022-08-01T14:38:51.046Z,27.10
2022-08-01T14:41:39.450Z,27.39
2022-08-01T14:44:33.044Z,27.58
2022-08-01T14:47:22.610Z,27.95
2022-08-01T14:50:13.555Z,28.64
2022-08-01T14:53:03.390Z,28.58
2022-08-01T14:55:51.867Z,29.38
2022-08-01T14:58:40.284Z,29.65
2022-08-01T15:01:28.801Z,30.71
2022-08-01T15:04:18.513Z,30.13
2022-08-01T15:07:06.920Z,30.24
2022-08-01T15:09:57.341Z,31.06
2022-08-01T15:12:50.511Z,31.25
2022-08-01T15:15:39.123Z,30.64
2022-08-01T15:18:27.813Z,29.54
2022-08-01T15:21:34.262Z,30.06
2022-08-01T15:24:25.122Z,29.50
2022-08-01T15:27:15.029Z,29.23
2022-08-01T15:30:03.608Z,29.78
2022-08-01T15:32:52.037Z,28.60
2022-08-01T15:35:40.887Z,28.20
2022-08-01T15:38:29.291Z,27.75
2022-08-01T15:41:17.893Z,27.52
2022-08-01T15:44:07.738Z,26.47
2022-08-01T15:46:56.212Z,27.17
2022-08-01T15:49:44.763Z,27.05
2022-08-01T15:52:33.207Z,28.15
2022-08-01T15:55:21.598Z,28.37
2022-08-01T15:58:11.655Z,28.63
2022-08-01T16:01:01.834Z,28.41
2022-08-01T16:03:50.438Z,28.23
2022-08-01T16:06:39.109Z,28.57
2022-08-01T16:09:27.659Z,28.02
2022-08-01T16:12:16.046Z,27.38
2022-08-01T16:15:04.780Z,26.96
2022-08-01T16:17:54.625Z,27.17
2022-08-01T16:20:50.248Z,27.19
2022-08-01T16:23:39.000Z,26.77
2022-08-01T16:26:28.291Z,26.61
2022-08-01T16:29:16.716Z,26.13
2022-08-01T16:32:16.990Z,26.91
2022-08-01T16:35:16.589Z,26.79
2022-08-01T16:38:05.769Z,26.67
2022-08-01T16:40:55.661Z,26.84
2022-08-01T16:43:46.132Z,26.35
2022-08-01T16:46:42.553Z,26.46
2022-08-01T16:49:32.075Z,25.91
2022-08-01T16:52:22.021Z,26.41
2022-08-01T16:55:17.604Z,25.93
2022-08-01T16:58:06.110Z,25.44
2022-08-01T17:01:52.684Z,25.83
2022-08-01T17:04:09.356Z,25.96
2022-08-01T17:06:58.150Z,25.88
2022-08-01T17:09:47.948Z,25.52
2022-08-01T17:12:36.613Z,25.75
2022-08-01T17:15:25.068Z,25.36
2022-08-01T17:18:13.558Z,25.84
2022-08-01T17:21:02.060Z,25.95
2022-08-01T17:23:50.905Z,26.04
2022-08-01T17:26:40.640Z,26.27
2022-08-01T17:29:28.955Z,25.41
2022-08-01T17:32:32.765Z,25.61
2022-08-01T17:35:21.486Z,25.52
2022-08-01T17:38:09.891Z,25.19
2022-08-01T17:40:58.337Z,25.11
2022-08-01T17:43:48.255Z,24.75
2022-08-01T17:46:37.028Z,24.57
2022-08-01T17:49:52.424Z,24.20
2022-08-01T17:52:35.691Z,24.78
2022-08-01T17:55:56.457Z,24.58
2022-08-01T17:58:50.628Z,24.78
2022-08-01T18:01:45.259Z,24.90
2022-08-01T18:04:34.684Z,24.69
2022-08-01T18:08:01.215Z,23.69
2022-08-01T18:10:33.893Z,23.49
2022-08-01T18:13:22.369Z,23.92
2022-08-01T18:16:13.309Z,23.60
2022-08-01T18:19:03.526Z,23.11
2022-08-01T18:21:52.340Z,22.92
2022-08-01T18:24:40.872Z,22.91
2022-08-01T18:28:16.433Z,23.21
2022-08-01T18:30:37.691Z,22.91
2022-08-01T18:33:26.160Z,23.06
2022-08-01T18:36:32.016Z,22.73
2022-08-01T18:39:21.971Z,23.15
2022-08-01T18:42:14.085Z,23.31
2022-08-01T18:45:02.721Z,23.62
2022-08-01T18:47:51.168Z,23.62
2022-08-01T18:50:40.557Z,23.75
2022-08-01T18:53:30.518Z,22.95
2022-08-01T18:56:19.165Z,22.86
2022-08-01T18:59:07.955Z,22.83
2022-08-01T19:01:56.350Z,22.99
2022-08-01T19:04:45.341Z,23.46
2022-08-01T19:08:05.140Z,23.44
2022-08-01T19:10:44.704Z,24.06
2022-08-01T19:13:33.242Z,24.17
2022-08-01T19:16:21.776Z,24.25
2022-08-01T19:19:10.516Z,24.35
2022-08-01T19:21:59.377Z,24.36
2022-08-01T19:47:18.917Z,24.10
2022-08-01T19:50:08.249Z,23.84
2022-08-01T19:52:58.959Z,23.61
2022-08-01T19:55:48.591Z,23.79
2022-08-01T19:58:40.217Z,23.69
2022-08-01T20:01:29.161Z,23.55
2022-08-01T20:04:19.876Z,23.80
2022-08-01T20:07:09.285Z,23.92
2022-08-01T20:09:58.404Z,23.41
2022-08-01T20:12:47.943Z,23.63
2022-08-01T20:15:36.340Z,23.45
2022-08-01T20:18:25.321Z,23.18
2022-08-01T20:21:15.814Z,23.17
2022-08-01T20:24:04.808Z,23.66
2022-08-01T20:26:55.821Z,23.58
2022-08-01T20:29:46.115Z,23.33
2022-08-01T20:32:43.331Z,23.26
2022-08-01T20:35:51.097Z,23.18
2022-08-01T20:38:43.581Z,22.94
2022-08-01T20:41:32.678Z,22.43
2022-08-01T20:44:22.033Z,22.39
2022-08-01T20:47:10.791Z,21.97
2022-08-01T20:50:29.448Z,22.35
2022-08-01T20:53:28.351Z,22.59
2022-08-01T20:56:26.668Z,22.14
2022-08-01T20:59:39.973Z,22.38
2022-08-01T21:02:42.677Z,22.97
2022-08-01T21:05:33.582Z,22.77
2022-08-01T21:08:25.293Z,23.04
2022-08-01T21:11:22.002Z,22.96
2022-08-01T21:14:13.472Z,23.22
2022-08-01T21:17:08.405Z,23.10
2022-08-01T21:20:01.245Z,22.76
2022-08-01T21:23:05.866Z,23.02
2022-08-01T21:25:55.275Z,22.64
2022-08-01T21:28:53.860Z,22.78
2022-08-01T21:31:43.177Z,23.02
2022-08-01T21:34:31.915Z,23.00
2022-08-01T21:37:20.291Z,22.35
2022-08-01T21:40:11.449Z,22.09
2022-08-01T21:43:01.996Z,22.41
2022-08-01T21:45:57.891Z,22.50
2022-08-01T21:48:47.983Z,22.63
2022-08-01T21:51:43.695Z,22.66
2022-08-01T21:54:41.729Z,22.54
2022-08-01T21:57:45.311Z,22.26
2022-08-01T22:00:37.599Z,22.47
2022-08-01T22:03:36.210Z,22.38
2022-08-01T22:06:25.950Z,22.23
2022-08-01T22:09:15.367Z,22.29
2022-08-01T22:12:08.127Z,22.09
2022-08-01T22:14:58.709Z,21.69
2022-08-01T22:17:49.708Z,21.51
2022-08-01T22:20:39.618Z,21.82
2022-08-01T22:23:28.858Z,22.28
2022-08-01T22:26:17.674Z,22.60
2022-08-01T22:29:06.821Z,22.22
2022-08-01T22:31:57.026Z,22.05
2022-08-01T22:34:45.503Z,22.42
2022-08-01T22:37:56.998Z,22.52
2022-08-01T22:40:49.472Z,22.44
2022-08-01T22:43:42.910Z,22.43
2022-08-01T22:46:46.238Z,22.60
2022-08-01T22:49:41.360Z,22.79
2022-08-01T22:52:31.529Z,22.55
2022-08-01T22:55:22.562Z,22.31
2022-08-01T22:58:12.984Z,22.27
2022-08-01T23:01:02.966Z,22.08
2022-08-01T23:03:53.528Z,22.16
2022-08-01T23:06:44.162Z,21.96
2022-08-01T23:09:39.191Z,22.08
2022-08-01T23:12:45.547Z,21.82
2022-08-01T23:15:35.083Z,21.86
2022-08-01T23:18:24.734Z,22.14
2022-08-01T23:21:14.727Z,22.02
2022-08-01T23:24:06.238Z,21.50
2022-08-01T23:26:55.484Z,21.72
2022-08-01T23:29:47.912Z,22.03
2022-08-01T23:32:36.704Z,21.86
2022-08-01T23:35:25.779Z,21.79
2022-08-01T23:38:16.003Z,21.91
2022-08-01T23:41:15.003Z,22.09
2022-08-01T23:44:03.484Z,21.80
2022-08-01T23:46:54.895Z,21.61
2022-08-01T23:49:53.116Z,21.41
2022-08-01T23:52:48.224Z,21.31
2022-08-01T23:55:38.362Z,21.62
2022-08-01T23:58:26.851Z,21.82
